Deer Park, CA (94576)

6:26 AM PDT on August 03, 2015 (GMT -0700)
Ehlers Lane | | Change Station
CLOSE
Current Station
Personal Weather Station
Location: Saint Helena, CA
Elevation: 272 ft
Nearby Weather Stations

Elev 272 ft 38.53 °N, 122.50 °W | Updated 5 seconds ago

Mostly Cloudy
Mostly Cloudy
59.7 °F
Feels Like 59.7 °F
N
0.0
Wind Variable Wind from SW
Gusts 0.0 mph

Today
High -- | Low -- °F
--% Chance of Precip.
Yesterday
High -- | Low -- °F
Precip. -- in
6:13 AM 8:18 PM
Waning Gibbous, 87% visible
Pressure 29.91 in
Visibility 10.0 miles
Clouds Overcast 1000 ft
Dew Point 57 °F
Humidity 91%
Rainfall 0.00 in
Snow Depth Not available.
UV 0 out of 12
Pollen 6.50 out of 12
Air Quality Not available.
Flu Activity Not available.
METAR KSTS 031253Z AUTO 31003KT 10SM OVC010 15/13 A2993 RMK AO2 SLP127 T01500128

More Conditions Fewer Conditions

Pressure 29.91 in
Visibility 10.0 miles
Clouds Overcast 1000 ft
Dew Point 57 °F
Humidity 91%
Rainfall 0.00 in
Snow Depth Not available.
UV 0 out of 12
Pollen 6.50 out of 12
Air Quality Not available.
Flu Activity Not available.
METAR KSTS 031253Z AUTO 31003KT 10SM OVC010 15/13 A2993 RMK AO2 SLP127 T01500128

More Conditions Fewer Conditions

10-Day Weather Forecast

×

Almanac

Astronomy

Aug. 03, 2015 Rise Set
Actual Time
Civil Twilight
Nautical Twilight
Astronomical Twilight
Moon
Length of Visible Light
Length of Day
Tomorrow will be .
, % of the Moon is Illuminated

Today's Extremes

State Highs State Lows

Community

WunderPhotos

Upload Photos

1,843,635 photos uploaded!

WunderBlogs® & News

Nearby

Air Quality

  Air Quality AQ Index Pollutant
Not available.

Snow Depth

Station Depth Elevation

Earthquake Activity

City Distance Mag. Time & Date
Minimum magnitude displayed is 2.5.

Coastal Water Temperatures

Place Temperature

Stations

Nearby Weather Stations

Station Location Temp. Windchill Dew Point Humidity Wind Precip. Elev Updated Type